Time;durP1;ratioP1;P1;durP2;ratioP2;P2;SDS_P1;SDS_P2;PMS_P1;PMS_P2;Temp;Humidity;BMP_temperature;BMP_pressure;BME280_temperature;BME280_humidity;BME280_pressure;Samples;Min_cycle;Max_cycle;Signal;HPM_P1;HPM_P2
2023/12/02 00:02:21;;;;;;;10.15;7.15;;;0.10;99.90;;;;;;5075707;28;20036;-34
2023/12/02 00:04:47;;;;;;;10.05;6.75;;;0.10;99.90;;;;;;5074482;28;20036;-33
2023/12/02 00:07:13;;;;;;;13.05;8.13;;;0.10;99.90;;;;;;5074640;28;20044;-33
2023/12/02 00:09:38;;;;;;;8.90;6.20;;;0.10;99.90;;;;;;5072388;28;20053;-34
2023/12/02 00:12:04;;;;;;;11.02;6.63;;;0.00;99.90;;;;;;5069173;28;20032;-33
2023/12/02 00:14:30;;;;;;;11.68;6.55;;;0.00;99.90;;;;;;5069452;28;20017;-32
2023/12/02 00:16:56;;;;;;;10.57;7.45;;;0.00;99.90;;;;;;5071459;28;20033;-34
2023/12/02 00:19:21;;;;;;;13.85;8.57;;;0.00;99.90;;;;;;5073389;28;20036;-33
2023/12/02 00:21:47;;;;;;;12.63;8.38;;;0.00;99.90;;;;;;5070226;28;20056;-34
2023/12/02 00:24:13;;;;;;;12.43;7.40;;;0.00;99.90;;;;;;5068618;28;20497;-32
2023/12/02 00:26:38;;;;;;;12.30;8.15;;;0.00;99.90;;;;;;5074255;28;20100;-35
2023/12/02 00:29:04;;;;;;;11.13;8.35;;;0.00;99.90;;;;;;5074187;28;20031;-32
2023/12/02 00:31:29;;;;;;;8.77;6.75;;;0.00;99.90;;;;;;5071007;28;20028;-32
2023/12/02 00:33:57;;;;;;;12.75;8.40;;;0.00;99.90;;;;;;5072499;28;20035;-39
2023/12/02 00:36:23;;;;;;;13.32;8.20;;;0.00;99.90;;;;;;5073150;28;20024;-36
2023/12/02 00:38:48;;;;;;;10.38;6.68;;;0.00;99.90;;;;;;5074100;28;20024;-31
2023/12/02 00:41:14;;;;;;;12.73;8.23;;;0.00;99.90;;;;;;5079883;28;20059;-31
2023/12/02 00:43:39;;;;;;;11.43;7.00;;;0.00;99.90;;;;;;5076890;28;20732;-35
2023/12/02 00:46:05;;;;;;;12.93;6.95;;;0.00;99.90;;;;;;5078199;28;20071;-32
2023/12/02 00:48:31;;;;;;;13.38;8.38;;;0.00;99.90;;;;;;5073007;28;20453;-31
2023/12/02 00:50:56;;;;;;;12.75;7.38;;;0.00;99.90;;;;;;5076529;28;20100;-31
2023/12/02 00:53:22;;;;;;;14.32;8.27;;;0.00;99.90;;;;;;5083690;28;20029;-31
2023/12/02 00:55:48;;;;;;;14.63;8.20;;;0.00;99.90;;;;;;5083134;28;20063;-30
2023/12/02 00:58:13;;;;;;;13.07;7.78;;;0.00;99.90;;;;;;5074551;28;20401;-32
2023/12/02 01:00:39;;;;;;;11.93;7.63;;;0.00;99.90;;;;;;5079540;28;20069;-35
2023/12/02 01:03:05;;;;;;;12.23;6.85;;;0.00;99.90;;;;;;5076687;28;20041;-31
2023/12/02 01:05:30;;;;;;;12.55;7.95;;;0.00;99.90;;;;;;5082509;28;20076;-31
2023/12/02 01:07:56;;;;;;;11.05;7.15;;;0.00;99.90;;;;;;5075193;28;20025;-30
2023/12/02 01:10:21;;;;;;;13.95;8.38;;;0.00;99.90;;;;;;5080126;28;20063;-34
2023/12/02 01:12:47;;;;;;;13.55;8.60;;;-0.10;99.90;;;;;;5081237;28;20024;-33
2023/12/02 01:15:12;;;;;;;11.38;7.88;;;-0.10;99.90;;;;;;5078848;28;20024;-33
2023/12/02 01:21:00;;;;;;;14.57;7.72;;;-0.10;99.90;;;;;;5081744;28;20043;-31
2023/12/02 01:23:25;;;;;;;13.57;7.38;;;-0.10;99.90;;;;;;5077330;28;20028;-36
2023/12/02 01:25:51;;;;;;;12.98;7.70;;;-0.10;99.90;;;;;;5074251;28;20064;-31
2023/12/02 01:28:16;;;;;;;13.35;7.35;;;-0.10;99.90;;;;;;5074181;28;20052;-35
2023/12/02 01:30:42;;;;;;;9.85;6.90;;;-0.10;99.90;;;;;;5073125;27;20033;-31
2023/12/02 01:33:08;;;;;;;13.20;8.07;;;-0.10;99.90;;;;;;5075254;28;20025;-31
2023/12/02 01:35:33;;;;;;;14.13;8.90;;;-0.10;99.90;;;;;;5078675;28;20110;-32
2023/12/02 01:37:59;;;;;;;16.42;9.55;;;-0.20;99.90;;;;;;5071627;28;20119;-32
2023/12/02 01:40:24;;;;;;;14.27;8.85;;;-0.20;99.90;;;;;;5074207;28;20028;-31
2023/12/02 01:42:50;;;;;;;13.52;7.93;;;-0.20;99.90;;;;;;5080397;28;20085;-30
2023/12/02 01:45:15;;;;;;;15.80;8.07;;;-0.20;99.90;;;;;;5080659;28;20028;-34
2023/12/02 01:47:43;;;;;;;14.43;8.68;;;-0.20;99.90;;;;;;5075885;28;20052;-40
2023/12/02 01:50:10;;;;;;;11.50;6.55;;;-0.20;99.90;;;;;;5074977;28;20098;-37
2023/12/02 01:52:36;;;;;;;16.38;9.18;;;-0.20;99.90;;;;;;5070448;28;20047;-40
2023/12/02 01:55:02;;;;;;;13.68;7.57;;;-0.20;99.90;;;;;;5073123;28;20105;-40
2023/12/02 01:57:28;;;;;;;10.65;7.43;;;-0.20;99.90;;;;;;5074887;28;20052;-39
2023/12/02 01:59:55;;;;;;;10.02;6.55;;;-0.20;99.90;;;;;;5072129;28;20028;-39
2023/12/02 02:02:21;;;;;;;11.63;7.28;;;-0.20;99.90;;;;;;5071459;28;20037;-38
2023/12/02 02:04:48;;;;;;;14.23;8.10;;;-0.20;99.90;;;;;;5071501;28;20090;-39
2023/12/02 02:07:14;;;;;;;12.07;7.18;;;-0.20;99.90;;;;;;5071016;28;20071;-39
2023/12/02 02:09:48;;;;;;;15.43;9.27;;;-0.20;99.90;;;;;;5068086;28;20071;-34
2023/12/02 02:12:15;;;;;;;13.02;6.97;;;-0.20;99.90;;;;;;5075382;28;20043;-38
2023/12/02 02:14:41;;;;;;;12.20;7.72;;;-0.20;99.90;;;;;;5069147;28;20035;-37
2023/12/02 02:17:07;;;;;;;18.13;8.93;;;-0.20;99.90;;;;;;5071608;28;20386;-40
2023/12/02 02:19:32;;;;;;;13.82;8.13;;;-0.20;99.90;;;;;;5075047;28;20032;-40
2023/12/02 02:21:58;;;;;;;13.93;7.80;;;-0.30;99.90;;;;;;5069739;28;20049;-39
2023/12/02 02:24:24;;;;;;;16.17;11.30;;;-0.20;99.90;;;;;;5069435;28;20028;-35
2023/12/02 02:26:49;;;;;;;17.23;9.18;;;-0.30;99.90;;;;;;5074613;28;20032;-39
2023/12/02 02:29:15;;;;;;;15.07;8.13;;;-0.30;99.90;;;;;;5084999;28;20447;-39
2023/12/02 02:31:41;;;;;;;14.20;8.88;;;-0.20;99.90;;;;;;5073910;28;20041;-36
2023/12/02 02:34:06;;;;;;;17.02;8.82;;;-0.30;99.90;;;;;;5083679;28;20030;-39
2023/12/02 02:36:32;;;;;;;10.60;6.78;;;-0.30;99.90;;;;;;5080562;28;20054;-35
2023/12/02 02:38:58;;;;;;;17.60;9.93;;;-0.30;99.90;;;;;;5083545;28;20024;-39
2023/12/02 02:41:24;;;;;;;12.75;7.72;;;-0.30;99.90;;;;;;5079280;28;20028;-40
2023/12/02 02:43:50;;;;;;;14.00;8.23;;;-0.30;99.90;;;;;;5072885;28;20044;-40
2023/12/02 02:46:16;;;;;;;13.43;8.07;;;-0.30;99.90;;;;;;5071329;28;20033;-39
2023/12/02 02:48:41;;;;;;;14.85;8.65;;;-0.30;99.90;;;;;;5071642;28;20097;-40
2023/12/02 02:51:07;;;;;;;13.07;7.80;;;-0.30;99.90;;;;;;5075728;28;20029;-37
2023/12/02 02:53:33;;;;;;;14.77;8.38;;;-0.30;99.90;;;;;;5073482;28;20436;-39
2023/12/02 02:55:58;;;;;;;16.88;8.65;;;-0.30;99.90;;;;;;5076776;28;20698;-38
2023/12/02 02:58:28;;;;;;;10.15;7.03;;;-0.30;99.90;;;;;;5072857;28;20036;-39
2023/12/02 03:00:53;;;;;;;14.05;8.25;;;-0.30;99.90;;;;;;5075623;27;20032;-38
2023/12/02 03:03:19;;;;;;;12.98;7.78;;;-0.30;99.90;;;;;;5074239;28;20077;-40
2023/12/02 03:05:44;;;;;;;15.80;9.57;;;-0.40;99.90;;;;;;5076246;28;20034;-38
2023/12/02 03:08:10;;;;;;;13.25;7.75;;;-0.40;99.90;;;;;;5068524;28;20028;-41
2023/12/02 03:10:36;;;;;;;11.68;8.55;;;-0.30;99.90;;;;;;5070401;28;20292;-39
2023/12/02 03:13:02;;;;;;;11.32;7.45;;;-0.30;99.90;;;;;;5075138;28;20071;-39
2023/12/02 03:15:27;;;;;;;12.48;8.07;;;-0.30;99.90;;;;;;5074111;28;20039;-39
2023/12/02 03:17:53;;;;;;;13.05;7.90;;;-0.40;99.90;;;;;;5071912;28;20096;-39
2023/12/02 03:20:18;;;;;;;10.93;6.55;;;-0.30;99.90;;;;;;5073616;28;20055;-39
2023/12/02 03:22:45;;;;;;;17.08;9.40;;;-0.40;99.90;;;;;;5073060;28;20040;-40
2023/12/02 03:25:11;;;;;;;13.65;8.10;;;-0.40;99.90;;;;;;5071910;28;20070;-40
2023/12/02 03:27:37;;;;;;;10.73;7.63;;;-0.40;99.90;;;;;;5075662;28;20052;-39
2023/12/02 03:30:03;;;;;;;12.57;8.20;;;-0.40;99.90;;;;;;5077209;28;20029;-40
2023/12/02 03:32:29;;;;;;;11.30;7.13;;;-0.40;99.90;;;;;;5092347;28;20401;-40
2023/12/02 03:34:54;;;;;;;11.98;7.25;;;-0.40;99.90;;;;;;5074365;28;20036;-40
2023/12/02 03:37:20;;;;;;;13.93;8.85;;;-0.40;99.90;;;;;;5068934;28;20056;-39
2023/12/02 03:39:46;;;;;;;13.90;8.68;;;-0.40;99.90;;;;;;5075879;28;20032;-39
2023/12/02 03:42:11;;;;;;;15.27;8.57;;;-0.40;99.90;;;;;;5073404;28;20432;-40
2023/12/02 03:44:37;;;;;;;14.40;8.30;;;-0.50;99.90;;;;;;5071563;28;20139;-36
2023/12/02 03:47:03;;;;;;;15.77;8.52;;;-0.40;99.90;;;;;;5074506;28;20424;-38
2023/12/02 03:49:28;;;;;;;14.73;8.55;;;-0.50;99.90;;;;;;5069125;28;20379;-39
2023/12/02 03:51:54;;;;;;;15.07;8.15;;;-0.50;99.90;;;;;;5070484;28;20135;-40
2023/12/02 03:54:20;;;;;;;10.15;6.07;;;-0.50;99.90;;;;;;5072698;28;20070;-40
2023/12/02 03:56:45;;;;;;;16.65;9.80;;;-0.50;99.90;;;;;;5073041;28;20032;-36
2023/12/02 03:59:11;;;;;;;15.55;8.20;;;-0.50;99.90;;;;;;5072757;28;20103;-40
2023/12/02 04:01:37;;;;;;;15.05;8.18;;;-0.50;99.90;;;;;;5072959;28;20027;-38
2023/12/02 04:04:02;;;;;;;14.70;9.38;;;-0.50;99.90;;;;;;5068578;28;20381;-39
2023/12/02 04:06:28;;;;;;;13.40;8.10;;;-0.50;99.90;;;;;;5073712;28;20631;-32
2023/12/02 04:08:54;;;;;;;16.77;9.45;;;-0.50;99.90;;;;;;5071240;28;20546;-33
2023/12/02 04:11:19;;;;;;;14.73;7.95;;;-0.60;99.90;;;;;;5073972;28;20073;-32
2023/12/02 04:13:45;;;;;;;10.82;7.60;;;-0.60;99.90;;;;;;5069991;28;20028;-32
2023/12/02 04:16:10;;;;;;;13.05;7.75;;;-0.60;99.90;;;;;;5076940;28;20075;-37
2023/12/02 04:18:36;;;;;;;13.85;8.48;;;-0.60;99.90;;;;;;5082030;28;20028;-31
2023/12/02 04:21:05;;;;;;;13.65;8.40;;;-0.60;99.90;;;;;;5081011;28;20066;-30
2023/12/02 04:23:31;;;;;;;;;;;-0.60;99.90;;;;;;5078152;28;20024;-31
2023/12/02 04:25:56;;;;;;;11.50;6.03;;;-0.60;99.90;;;;;;5078810;28;19915;-30
2023/12/02 04:28:22;;;;;;;11.40;6.90;;;-0.60;99.90;;;;;;5077442;28;20856;-31
2023/12/02 04:30:47;;;;;;;12.95;7.03;;;-0.60;99.90;;;;;;5079021;28;20025;-31
2023/12/02 04:33:13;;;;;;;14.63;8.68;;;-0.60;99.90;;;;;;5077230;28;20033;-33
2023/12/02 04:35:39;;;;;;;12.93;7.53;;;-0.60;99.90;;;;;;5078693;28;20163;-37
2023/12/02 04:38:04;;;;;;;13.30;7.57;;;-0.60;99.90;;;;;;5074311;28;20032;-34
2023/12/02 04:40:32;;;;;;;13.88;8.18;;;-0.60;99.90;;;;;;5073378;28;20020;-31
2023/12/02 04:42:57;;;;;;;15.77;8.48;;;-0.60;99.90;;;;;;5080095;28;20053;-35
2023/12/02 04:45:23;;;;;;;14.68;8.30;;;-0.60;99.90;;;;;;5075673;28;20032;-32
2023/12/02 04:47:48;;;;;;;14.38;7.72;;;-0.60;99.90;;;;;;5075410;28;20036;-31
2023/12/02 04:50:14;;;;;;;13.43;7.55;;;-0.70;99.90;;;;;;5079444;28;20468;-32
2023/12/02 04:52:40;;;;;;;11.30;6.72;;;-0.60;99.90;;;;;;5075138;28;20377;-37
2023/12/02 04:55:06;;;;;;;12.95;6.75;;;-0.70;99.90;;;;;;5076352;28;20535;-31
2023/12/02 04:57:32;;;;;;;12.07;7.90;;;-0.70;99.90;;;;;;5078142;28;20028;-31
2023/12/02 04:59:57;;;;;;;12.23;6.60;;;-0.70;99.90;;;;;;5083770;28;20025;-31
2023/12/02 05:02:24;;;;;;;13.82;7.85;;;-0.70;99.90;;;;;;5079681;28;20032;-38
2023/12/02 05:04:49;;;;;;;10.85;6.50;;;-0.70;99.90;;;;;;5078684;28;20070;-31
2023/12/02 05:07:15;;;;;;;10.90;6.78;;;-0.70;99.90;;;;;;5077720;28;20028;-33
2023/12/02 05:09:41;;;;;;;10.25;6.65;;;-0.70;99.90;;;;;;5077410;28;20596;-32
2023/12/02 05:12:07;;;;;;;12.75;6.80;;;-0.70;99.90;;;;;;5078739;28;20063;-32
2023/12/02 05:14:34;;;;;;;10.30;6.55;;;-0.70;99.90;;;;;;5069625;28;20426;-32
2023/12/02 05:16:59;;;;;;;13.18;7.85;;;-0.70;99.90;;;;;;5073533;28;20029;-38
2023/12/02 05:19:25;;;;;;;12.73;7.00;;;-0.70;99.90;;;;;;5071568;28;20650;-38
2023/12/02 05:21:51;;;;;;;10.93;7.00;;;-0.70;99.90;;;;;;5076451;28;20056;-40
2023/12/02 05:24:18;;;;;;;7.68;5.95;;;-0.70;99.90;;;;;;5075040;28;20054;-36
2023/12/02 05:26:44;;;;;;;12.90;6.40;;;-0.70;99.90;;;;;;5071193;28;20071;-31
2023/12/02 05:29:10;;;;;;;11.27;6.70;;;-0.60;99.90;;;;;;5078313;28;20496;-33
2023/12/02 05:31:38;;;;;;;10.43;6.57;;;-0.60;99.90;;;;;;5077632;27;20124;-31
2023/12/02 05:34:03;;;;;;;10.07;6.20;;;-0.60;99.90;;;;;;5072285;28;20032;-33
2023/12/02 05:36:29;;;;;;;7.57;5.10;;;-0.60;99.90;;;;;;5073982;28;20028;-33
2023/12/02 05:38:54;;;;;;;9.30;6.03;;;-0.60;99.90;;;;;;5083053;28;20572;-33
2023/12/02 05:41:20;;;;;;;10.63;6.53;;;-0.60;99.90;;;;;;5074530;28;20091;-35
2023/12/02 05:43:46;;;;;;;8.88;5.68;;;-0.60;99.90;;;;;;5074105;28;20558;-31
2023/12/02 05:46:16;;;;;;;10.45;6.03;;;-0.60;99.90;;;;;;5074424;28;20041;-31
2023/12/02 05:48:43;;;;;;;8.48;5.53;;;-0.60;99.90;;;;;;5073215;28;20398;-34
2023/12/02 05:51:08;;;;;;;6.18;4.53;;;-0.50;99.90;;;;;;5077220;28;20016;-30
2023/12/02 05:53:34;;;;;;;7.28;5.05;;;-0.60;99.90;;;;;;5075899;28;20028;-32
2023/12/02 05:56:00;;;;;;;9.90;6.00;;;-0.50;99.90;;;;;;5074276;28;20119;-31
2023/12/02 05:58:26;;;;;;;8.80;6.03;;;-0.50;99.90;;;;;;5077573;28;20401;-30
2023/12/02 06:00:52;;;;;;;7.13;5.03;;;-0.50;99.90;;;;;;5081558;28;20040;-36
2023/12/02 06:03:17;;;;;;;9.05;6.35;;;-0.60;99.90;;;;;;5077075;28;20024;-33
2023/12/02 06:05:43;;;;;;;4.82;4.05;;;-0.50;99.90;;;;;;5075939;28;20031;-31
2023/12/02 06:08:08;;;;;;;5.32;4.75;;;-0.50;99.90;;;;;;5075195;28;20072;-31
2023/12/02 06:10:34;;;;;;;10.13;6.25;;;-0.50;99.90;;;;;;5074461;28;20031;-37
2023/12/02 06:13:00;;;;;;;13.05;6.80;;;-0.40;99.90;;;;;;5081662;28;20028;-31
2023/12/02 06:15:25;;;;;;;11.52;6.55;;;-0.50;99.90;;;;;;5075447;28;20062;-33
2023/12/02 06:17:56;;;;;;;11.75;7.63;;;-0.70;99.90;;;;;;5071826;28;20469;-30
2023/12/02 06:20:24;;;;;;;11.20;6.07;;;-0.80;99.90;;;;;;5072083;28;20422;-33
2023/12/02 06:22:50;;;;;;;8.20;6.00;;;-0.90;99.90;;;;;;5073741;28;20021;-31
2023/12/02 06:25:16;;;;;;;8.52;5.70;;;-0.90;99.90;;;;;;5074384;28;20036;-34
2023/12/02 06:27:41;;;;;;;14.68;7.38;;;-0.90;99.90;;;;;;5075483;28;20027;-32
2023/12/02 06:30:08;;;;;;;7.85;5.57;;;-1.00;99.90;;;;;;5072837;28;20056;-34
2023/12/02 06:32:34;;;;;;;10.70;6.43;;;-1.00;99.90;;;;;;5071824;28;20029;-32
2023/12/02 06:34:59;;;;;;;9.73;5.95;;;-1.10;99.90;;;;;;5075099;28;20170;-32
2023/12/02 06:37:25;;;;;;;11.75;7.05;;;-1.00;99.90;;;;;;5070589;28;20047;-33
2023/12/02 06:39:50;;;;;;;12.50;8.10;;;-1.10;99.90;;;;;;5077879;28;20028;-34
2023/12/02 06:42:16;;;;;;;12.90;7.25;;;-1.10;99.90;;;;;;5075029;28;20051;-35
2023/12/02 06:44:45;;;;;;;10.32;6.60;;;-1.00;99.90;;;;;;5076021;28;20032;-35
2023/12/02 06:47:10;;;;;;;12.68;6.93;;;-1.00;99.90;;;;;;5071954;28;20042;-35
2023/12/02 06:49:36;;;;;;;13.50;6.60;;;-1.00;99.90;;;;;;5072740;28;20596;-34
2023/12/02 06:52:01;;;;;;;11.52;6.88;;;-1.10;99.90;;;;;;5077676;28;20444;-34
2023/12/02 06:54:27;;;;;;;11.40;6.25;;;-1.10;99.90;;;;;;5078302;28;20038;-34
2023/12/02 06:56:53;;;;;;;12.00;7.40;;;-1.10;99.90;;;;;;5076225;28;20028;-32
2023/12/02 06:59:18;;;;;;;11.75;7.05;;;-1.10;99.90;;;;;;5071698;28;20070;-34
2023/12/02 07:01:45;;;;;;;10.27;6.57;;;-1.10;99.90;;;;;;5074406;28;20037;-32
2023/12/02 07:04:10;;;;;;;10.52;5.88;;;-1.10;99.90;;;;;;5073770;28;20035;-33
2023/12/02 07:06:39;;;;;;;12.07;6.88;;;-1.20;99.90;;;;;;5082459;28;20024;-33
2023/12/02 07:09:05;;;;;;;12.05;6.93;;;-1.10;99.90;;;;;;5078300;28;20089;-34
2023/12/02 07:11:31;;;;;;;10.48;6.63;;;-1.20;99.90;;;;;;5071799;28;20025;-33
2023/12/02 07:13:56;;;;;;;10.15;5.40;;;-1.10;99.90;;;;;;5081917;28;20103;-33
2023/12/02 07:16:24;;;;;;;11.25;7.10;;;-1.00;99.90;;;;;;5079102;28;20053;-36
2023/12/02 07:18:50;;;;;;;15.37;6.90;;;-0.90;99.90;;;;;;5083059;28;20033;-34
2023/12/02 07:21:15;;;;;;;13.13;7.05;;;-0.80;99.90;;;;;;5075687;28;20568;-33
2023/12/02 07:23:42;;;;;;;13.02;6.53;;;-0.80;99.90;;;;;;5069820;28;20071;-32
2023/12/02 07:26:09;;;;;;;7.47;5.53;;;-0.80;99.90;;;;;;5072240;28;20028;-35
2023/12/02 07:28:36;;;;;;;11.05;6.85;;;-0.70;99.90;;;;;;5073166;28;20048;-33
2023/12/02 07:31:03;;;;;;;9.70;6.50;;;-0.70;99.90;;;;;;5070777;28;20020;-34
2023/12/02 07:33:28;;;;;;;9.40;5.95;;;-0.80;99.90;;;;;;5070917;28;20032;-34
2023/12/02 07:35:54;;;;;;;14.52;7.18;;;-0.80;99.90;;;;;;5070690;28;20648;-32
2023/12/02 07:38:20;;;;;;;14.82;7.35;;;-0.80;99.90;;;;;;5071192;28;20688;-43
2023/12/02 07:40:45;;;;;;;14.05;8.40;;;-0.90;99.90;;;;;;5067401;28;20083;-38
2023/12/02 07:43:11;;;;;;;12.82;7.00;;;-0.90;99.90;;;;;;5076404;28;20504;-38
2023/12/02 07:45:37;;;;;;;13.65;7.13;;;-0.90;99.90;;;;;;5073136;28;20110;-42
2023/12/02 07:48:04;;;;;;;8.60;6.30;;;-0.90;99.90;;;;;;5070333;28;20052;-32
2023/12/02 07:50:29;;;;;;;11.85;7.03;;;-0.90;99.90;;;;;;5071216;28;20500;-33
2023/12/02 07:52:55;;;;;;;13.18;6.88;;;-0.80;99.90;;;;;;5074158;28;20032;-32
2023/12/02 07:55:20;;;;;;;13.75;7.40;;;-0.80;99.90;;;;;;5079206;28;20055;-32
2023/12/02 07:57:46;;;;;;;11.35;6.18;;;-0.90;99.90;;;;;;5071870;28;20493;-32
2023/12/02 08:00:12;;;;;;;11.20;6.57;;;-1.00;99.90;;;;;;5067187;28;20445;-30
2023/12/02 08:02:38;;;;;;;14.32;7.78;;;-1.00;99.90;;;;;;5069616;28;20475;-35
2023/12/02 08:05:04;;;;;;;14.93;8.63;;;-1.10;99.90;;;;;;5071661;28;20027;-39
2023/12/02 08:07:30;;;;;;;14.95;8.93;;;-1.10;99.90;;;;;;5068334;28;20031;-37
2023/12/02 08:09:56;;;;;;;11.60;6.65;;;-1.10;99.90;;;;;;5072109;28;20117;-37
2023/12/02 08:12:21;;;;;;;18.67;8.70;;;-1.00;99.90;;;;;;5066796;28;20071;-39
2023/12/02 08:14:47;;;;;;;11.80;6.97;;;-1.10;99.90;;;;;;5073166;28;20506;-40
2023/12/02 08:17:13;;;;;;;13.60;6.45;;;-1.00;99.90;;;;;;5070057;28;20034;-38
2023/12/02 08:19:38;;;;;;;13.25;7.60;;;-1.00;99.90;;;;;;5071364;28;20094;-38
2023/12/02 08:22:04;;;;;;;13.63;8.13;;;-1.00;99.90;;;;;;5075993;28;20125;-39
2023/12/02 08:24:32;;;;;;;12.02;7.97;;;-1.00;99.90;;;;;;5079025;28;20032;-39
2023/12/02 08:26:58;;;;;;;;;;;-0.90;99.90;;;;;;5080663;28;20020;-37
2023/12/02 08:29:24;;;;;;;9.38;6.38;;;-0.90;99.90;;;;;;5076250;28;19908;-37
2023/12/02 08:31:50;;;;;;;9.38;6.57;;;-1.00;99.90;;;;;;5072114;28;20484;-38
2023/12/02 08:34:16;;;;;;;7.95;5.95;;;-0.80;99.90;;;;;;5072674;28;20025;-36
2023/12/02 08:36:41;;;;;;;14.77;8.20;;;-0.80;99.90;;;;;;5067417;28;20017;-38
2023/12/02 08:39:07;;;;;;;12.45;8.05;;;-0.80;99.90;;;;;;5067382;28;20516;-37
2023/12/02 08:41:33;;;;;;;11.38;7.38;;;-0.90;99.90;;;;;;5071557;28;20046;-39
2023/12/02 08:43:59;;;;;;;13.57;8.50;;;-0.90;99.90;;;;;;5077214;28;20031;-39
2023/12/02 08:46:25;;;;;;;11.57;6.32;;;-0.90;99.90;;;;;;5069262;28;20025;-34
2023/12/02 08:48:51;;;;;;;12.68;7.57;;;-0.90;99.90;;;;;;5072056;28;20383;-41
2023/12/02 08:51:17;;;;;;;15.77;8.20;;;-0.90;99.90;;;;;;5075315;28;20103;-38
2023/12/02 08:53:43;;;;;;;8.25;6.00;;;-1.00;99.90;;;;;;5068390;28;20596;-42
2023/12/02 08:56:09;;;;;;;13.23;6.05;;;-1.10;99.90;;;;;;5073901;28;20025;-38
2023/12/02 08:58:34;;;;;;;10.45;6.07;;;-1.10;99.90;;;;;;5068027;28;20557;-34
2023/12/02 09:01:00;;;;;;;12.98;7.72;;;-1.30;99.90;;;;;;5068499;28;20032;-39
2023/12/02 09:03:26;;;;;;;9.00;6.43;;;-1.20;99.90;;;;;;5073947;28;20452;-35
2023/12/02 09:05:55;;;;;;;5.72;5.05;;;-1.20;99.90;;;;;;5077408;28;20033;-39
2023/12/02 09:08:21;;;;;;;13.90;8.35;;;-1.10;99.90;;;;;;5075680;28;20493;-41
2023/12/02 09:10:47;;;;;;;15.77;9.02;;;-1.10;99.90;;;;;;5072884;28;20055;-40
2023/12/02 09:13:42;;;;;;;11.65;6.15;;;-1.00;99.90;;;;;;5072820;28;20036;-40
2023/12/02 09:16:11;;;;;;;6.60;5.63;;;-1.00;99.90;;;;;;5077113;28;20071;-39
2023/12/02 09:18:38;;;;;;;13.02;7.00;;;-1.00;99.90;;;;;;5078132;28;20204;-40
2023/12/02 09:21:17;;;;;;;12.02;6.00;;;-1.00;99.90;;;;;;5081354;28;20562;-40
2023/12/02 09:23:42;;;;;;;;;;;-0.90;99.90;;;;;;5074909;28;20628;-38
2023/12/02 09:26:27;;;;;;;3.92;3.00;;;-1.00;99.90;;;;;;5073858;28;19920;-39
2023/12/02 09:28:54;;;;;;;7.40;6.03;;;-1.00;99.90;;;;;;5074215;28;20017;-32
2023/12/02 09:31:20;;;;;;;3.50;3.20;;;-0.90;99.90;;;;;;5072710;28;20601;-38
2023/12/02 09:33:54;;;;;;;10.88;6.28;;;-0.90;99.90;;;;;;5073591;28;20038;-41
2023/12/02 09:36:35;;;;;;;14.45;8.38;;;-0.90;99.90;;;;;;5074888;28;20429;-40
2023/12/02 09:39:21;;;;;;;9.32;6.15;;;-1.00;99.90;;;;;;5071273;28;20090;-42
2023/12/02 09:41:51;;;;;;;7.47;6.53;;;-1.00;99.90;;;;;;5045424;28;20078;-36
2023/12/02 09:44:39;;;;;;;10.02;6.20;;;-1.10;99.90;;;;;;5076505;28;20109;-36
2023/12/02 09:47:17;;;;;;;9.33;4.73;;;-1.10;99.90;;;;;;5074166;28;20029;-40
2023/12/02 09:50:04;;;;;;;13.68;6.88;;;-1.00;99.90;;;;;;5069404;28;20471;-41
2023/12/02 09:52:52;;;;;;;6.70;5.20;;;-1.10;99.90;;;;;;5070920;28;20027;-41
2023/12/02 09:55:33;;;;;;;9.30;6.90;;;-1.20;99.90;;;;;;5072725;28;20036;-34
2023/12/02 09:58:22;;;;;;;9.82;6.32;;;-1.10;99.90;;;;;;5069799;28;20051;-42
2023/12/02 10:00:57;;;;;;;10.85;7.05;;;-1.00;99.90;;;;;;5072620;28;20091;-39
2023/12/02 10:04:00;;;;;;;11.60;7.43;;;-0.90;99.90;;;;;;5079292;28;20754;-35
2023/12/02 10:06:42;;;;;;;4.70;4.07;;;-0.90;99.90;;;;;;5070967;28;20043;-41
2023/12/02 10:09:23;;;;;;;8.82;5.53;;;-1.00;99.90;;;;;;5071011;28;20115;-41
2023/12/02 10:12:07;;;;;;;7.75;4.38;;;-1.10;99.90;;;;;;5077260;28;20033;-39
2023/12/02 10:14:36;;;;;;;7.82;6.15;;;-1.10;99.90;;;;;;5067511;28;20470;-39
2023/12/02 10:17:04;;;;;;;10.57;6.72;;;-1.00;99.90;;;;;;5073394;28;20469;-38
2023/12/02 10:19:41;;;;;;;13.50;7.25;;;-1.00;99.90;;;;;;5077145;28;20413;-38
2023/12/02 10:22:09;;;;;;;11.65;6.68;;;-1.00;99.90;;;;;;5073499;28;20020;-38
2023/12/02 10:25:07;;;;;;;8.93;6.10;;;-1.00;99.90;;;;;;5070169;28;20027;-41
2023/12/02 10:27:36;;;;;;;13.13;6.70;;;-1.10;99.90;;;;;;5069494;28;20034;-41
2023/12/02 10:30:10;;;;;;;16.25;7.57;;;-1.00;99.90;;;;;;5067478;28;20028;-40
2023/12/02 10:33:13;;;;;;;4.47;2.85;;;-1.00;99.90;;;;;;5070226;28;20035;-39
2023/12/02 10:35:43;;;;;;;11.82;6.90;;;-1.00;99.90;;;;;;5070922;28;20032;-39
2023/12/02 10:38:38;;;;;;;8.90;5.43;;;-1.00;99.90;;;;;;5073164;28;20071;-40
2023/12/02 10:41:20;;;;;;;8.52;6.22;;;-0.90;99.90;;;;;;5052195;28;20547;-39
2023/12/02 10:43:50;;;;;;;9.52;5.60;;;-1.00;99.90;;;;;;5071500;28;20101;-41
2023/12/02 10:46:17;;;;;;;12.13;6.95;;;-1.00;99.90;;;;;;5072164;28;20058;-36
2023/12/02 10:48:43;;;;;;;10.95;6.35;;;-1.00;99.90;;;;;;5072208;28;20122;-41
2023/12/02 10:51:10;;;;;;;16.10;7.30;;;-0.90;99.90;;;;;;5072749;28;20036;-37
2023/12/02 10:53:37;;;;;;;11.45;6.22;;;-0.90;99.90;;;;;;5073056;28;20423;-40
2023/12/02 10:56:12;;;;;;;11.18;6.85;;;-1.00;99.90;;;;;;5070154;28;20028;-39
2023/12/02 10:58:42;;;;;;;9.07;5.93;;;-1.00;99.90;;;;;;5071372;28;20040;-41
2023/12/02 11:01:10;;;;;;;8.88;5.88;;;-0.90;99.90;;;;;;5069972;28;20669;-41
2023/12/02 11:03:51;;;;;;;7.50;4.63;;;-0.90;99.90;;;;;;5074955;28;20486;-38
2023/12/02 11:06:40;;;;;;;10.77;6.90;;;-1.10;99.90;;;;;;5071601;28;20032;-38
2023/12/02 11:09:06;;;;;;;;;;;-1.10;99.90;;;;;;5075865;28;20048;-32
2023/12/02 11:11:46;;;;;;;10.68;6.50;;;-1.10;99.90;;;;;;5077232;28;20273;-33
2023/12/02 11:14:17;;;;;;;11.23;7.05;;;-1.10;99.90;;;;;;5076750;28;20029;-32
2023/12/02 11:16:57;;;;;;;9.52;4.80;;;-1.10;99.90;;;;;;5079210;28;20536;-32
2023/12/02 11:19:40;;;;;;;14.15;7.43;;;-1.00;99.90;;;;;;5076386;28;20024;-33
2023/12/02 11:22:24;;;;;;;11.30;6.72;;;-1.00;99.90;;;;;;5079750;28;20123;-36
2023/12/02 11:25:14;;;;;;;10.25;6.47;;;-1.00;99.90;;;;;;5080172;28;20032;-33
2023/12/02 11:27:46;;;;;;;10.43;6.47;;;-1.20;99.90;;;;;;5079310;28;20472;-32
2023/12/02 11:30:32;;;;;;;10.48;6.75;;;-1.10;99.90;;;;;;5073868;28;20028;-35
2023/12/02 11:33:16;;;;;;;7.90;5.60;;;-1.10;99.90;;;;;;5075760;28;20135;-32
2023/12/02 11:36:10;;;;;;;7.15;4.53;;;-1.20;99.90;;;;;;5076397;28;20052;-35
2023/12/02 11:38:45;;;;;;;9.32;5.88;;;-1.20;99.90;;;;;;5076990;28;20039;-32
2023/12/02 11:41:28;;;;;;;12.65;7.25;;;-1.30;99.90;;;;;;5073780;28;20493;-32
2023/12/02 11:44:07;;;;;;;10.43;6.90;;;-1.30;99.90;;;;;;5075520;28;20505;-33
2023/12/02 11:46:57;;;;;;;9.13;6.30;;;-1.20;99.90;;;;;;5080221;28;20048;-33
2023/12/02 11:49:32;;;;;;;10.23;6.72;;;-1.10;99.90;;;;;;5069922;28;20016;-34
2023/12/02 11:52:25;;;;;;;15.20;7.93;;;-1.20;99.90;;;;;;5069939;28;20032;-33
2023/12/02 11:54:59;;;;;;;10.68;5.85;;;-1.20;99.90;;;;;;5071949;28;20489;-31
2023/12/02 11:57:57;;;;;;;7.10;5.72;;;-1.20;99.90;;;;;;5066617;28;20032;-33
2023/12/02 12:00:28;;;;;;;9.45;6.72;;;-1.20;99.90;;;;;;5073085;28;20515;-34
2023/12/02 12:03:15;;;;;;;10.10;6.15;;;-1.10;99.90;;;;;;5067594;28;20049;-34
2023/12/02 12:06:05;;;;;;;13.48;7.85;;;-1.10;99.90;;;;;;5065993;28;20036;-35
2023/12/02 12:08:41;;;;;;;9.77;6.03;;;-1.00;99.90;;;;;;5070688;28;20013;-31
2023/12/02 12:11:11;;;;;;;9.90;6.68;;;-1.00;99.90;;;;;;5069377;28;20029;-32
2023/12/02 12:13:38;;;;;;;8.75;6.05;;;-0.90;99.90;;;;;;5067951;28;20027;-34
2023/12/02 12:16:04;;;;;;;10.77;6.88;;;-0.90;99.90;;;;;;5078925;28;20033;-33
2023/12/02 12:18:30;;;;;;;11.52;6.25;;;-0.90;99.90;;;;;;5068667;28;20121;-36
2023/12/02 12:20:55;;;;;;;11.25;6.93;;;-0.80;99.90;;;;;;5070401;28;20492;-40
2023/12/02 12:23:24;;;;;;;15.02;6.80;;;-0.80;99.90;;;;;;5068536;28;20580;-40
2023/12/02 12:25:50;;;;;;;7.05;5.75;;;-0.80;99.90;;;;;;5072366;28;20029;-40
2023/12/02 12:28:16;;;;;;;10.30;6.53;;;-0.80;99.90;;;;;;5069604;28;20063;-36
2023/12/02 12:30:43;;;;;;;10.68;6.60;;;-0.80;99.90;;;;;;5067413;27;20036;-39
2023/12/02 12:33:13;;;;;;;11.88;7.40;;;-0.80;99.90;;;;;;5071541;28;20028;-37
2023/12/02 12:35:38;;;;;;;13.07;7.88;;;-0.80;99.90;;;;;;5071767;28;20025;-35
2023/12/02 12:38:06;;;;;;;9.68;6.28;;;-0.90;99.90;;;;;;5080876;28;20028;-32
2023/12/02 12:40:32;;;;;;;5.70;4.82;;;-1.00;99.90;;;;;;5084190;28;20029;-31
2023/12/02 12:42:59;;;;;;;11.20;6.80;;;-0.90;99.90;;;;;;5075523;28;20024;-31
2023/12/02 12:45:25;;;;;;;11.57;6.60;;;-1.00;99.90;;;;;;5074282;28;20121;-33
2023/12/02 12:47:53;;;;;;;8.52;5.53;;;-1.10;99.90;;;;;;5076992;28;20028;-35
2023/12/02 12:50:22;;;;;;;13.00;6.75;;;-1.10;99.90;;;;;;5073341;28;20032;-34
2023/12/02 12:52:50;;;;;;;12.07;7.53;;;-1.20;99.90;;;;;;5083815;28;20548;-35